sensor_id;sensor_type;location;lat;lon;timestamp;P1;durP1;ratioP1;P2;durP2;ratioP2
17214;SDS011;8723;51.502;6.918;2023-05-10T00:02:06;46.28;;;42.42;;
17214;SDS011;8723;51.502;6.918;2023-05-10T00:04:35;45.17;;;41.80;;
17214;SDS011;8723;51.502;6.918;2023-05-10T00:07:01;51.40;;;47.40;;
17214;SDS011;8723;51.502;6.918;2023-05-10T00:09:28;49.17;;;45.30;;
17214;SDS011;8723;51.502;6.918;2023-05-10T00:11:55;48.75;;;45.05;;
17214;SDS011;8723;51.502;6.918;2023-05-10T00:14:23;45.65;;;41.85;;
17214;SDS011;8723;51.502;6.918;2023-05-10T00:16:50;66.85;;;62.35;;
17214;SDS011;8723;51.502;6.918;2023-05-10T00:19:17;96.68;;;91.18;;
17214;SDS011;8723;51.502;6.918;2023-05-10T00:21:45;171.88;;;162.80;;
17214;SDS011;8723;51.502;6.918;2023-05-10T00:24:12;170.57;;;162.27;;
17214;SDS011;8723;51.502;6.918;2023-05-10T00:26:39;159.20;;;151.45;;
17214;SDS011;8723;51.502;6.918;2023-05-10T00:29:07;164.25;;;156.48;;
17214;SDS011;8723;51.502;6.918;2023-05-10T00:31:34;176.98;;;168.60;;
17214;SDS011;8723;51.502;6.918;2023-05-10T00:34:01;155.05;;;147.75;;
17214;SDS011;8723;51.502;6.918;2023-05-10T00:36:28;107.22;;;101.82;;
17214;SDS011;8723;51.502;6.918;2023-05-10T00:38:57;113.72;;;108.32;;
17214;SDS011;8723;51.502;6.918;2023-05-10T00:41:24;94.10;;;89.10;;
17214;SDS011;8723;51.502;6.918;2023-05-10T00:43:51;67.97;;;63.92;;
17214;SDS011;8723;51.502;6.918;2023-05-10T00:46:18;66.72;;;62.67;;
17214;SDS011;8723;51.502;6.918;2023-05-10T00:48:46;96.53;;;91.43;;
17214;SDS011;8723;51.502;6.918;2023-05-10T00:51:13;58.83;;;54.63;;
17214;SDS011;8723;51.502;6.918;2023-05-10T00:53:40;79.35;;;75.05;;
17214;SDS011;8723;51.502;6.918;2023-05-10T00:56:09;113.28;;;107.75;;
17214;SDS011;8723;51.502;6.918;2023-05-10T00:58:36;106.17;;;100.57;;
17214;SDS011;8723;51.502;6.918;2023-05-10T01:01:03;62.33;;;58.45;;
17214;SDS011;8723;51.502;6.918;2023-05-10T01:03:31;60.33;;;56.33;;
17214;SDS011;8723;51.502;6.918;2023-05-10T01:05:58;111.38;;;105.75;;
17214;SDS011;8723;51.502;6.918;2023-05-10T01:08:25;114.75;;;109.03;;
17214;SDS011;8723;51.502;6.918;2023-05-10T01:10:53;70.10;;;65.43;;
17214;SDS011;8723;51.502;6.918;2023-05-10T01:13:26;50.50;;;46.60;;
17214;SDS011;8723;51.502;6.918;2023-05-10T01:15:58;50.40;;;46.38;;
17214;SDS011;8723;51.502;6.918;2023-05-10T01:18:26;56.17;;;52.08;;
17214;SDS011;8723;51.502;6.918;2023-05-10T01:20:59;67.07;;;61.90;;
17214;SDS011;8723;51.502;6.918;2023-05-10T01:23:36;63.97;;;59.50;;
17214;SDS011;8723;51.502;6.918;2023-05-10T01:26:18;68.05;;;63.45;;
17214;SDS011;8723;51.502;6.918;2023-05-10T01:34:48;74.43;;;69.10;;
17214;SDS011;8723;51.502;6.918;2023-05-10T01:37:25;87.50;;;81.77;;
17214;SDS011;8723;51.502;6.918;2023-05-10T01:39:59;92.35;;;86.82;;
17214;SDS011;8723;51.502;6.918;2023-05-10T01:42:31;128.32;;;121.60;;
17214;SDS011;8723;51.502;6.918;2023-05-10T01:45:11;125.85;;;119.22;;
17214;SDS011;8723;51.502;6.918;2023-05-10T01:47:48;129.52;;;122.53;;
17214;SDS011;8723;51.502;6.918;2023-05-10T01:50:24;132.45;;;125.25;;
17214;SDS011;8723;51.502;6.918;2023-05-10T01:53:00;121.40;;;114.68;;
17214;SDS011;8723;51.502;6.918;2023-05-10T01:55:36;134.85;;;127.55;;
17214;SDS011;8723;51.502;6.918;2023-05-10T01:58:13;137.35;;;130.18;;
17214;SDS011;8723;51.502;6.918;2023-05-10T02:00:46;250.50;;;238.37;;
17214;SDS011;8723;51.502;6.918;2023-05-10T02:03:19;238.40;;;227.05;;
17214;SDS011;8723;51.502;6.918;2023-05-10T02:05:52;235.73;;;224.68;;
17214;SDS011;8723;51.502;6.918;2023-05-10T02:08:23;256.98;;;244.65;;
17214;SDS011;8723;51.502;6.918;2023-05-10T02:10:53;259.95;;;246.93;;
17214;SDS011;8723;51.502;6.918;2023-05-10T02:13:23;245.57;;;234.15;;
17214;SDS011;8723;51.502;6.918;2023-05-10T02:15:50;221.23;;;210.00;;
17214;SDS011;8723;51.502;6.918;2023-05-10T02:18:22;224.43;;;213.02;;
17214;SDS011;8723;51.502;6.918;2023-05-10T02:20:54;215.18;;;204.27;;
17214;SDS011;8723;51.502;6.918;2023-05-10T02:23:26;216.18;;;205.13;;
17214;SDS011;8723;51.502;6.918;2023-05-10T02:25:57;210.00;;;199.88;;
17214;SDS011;8723;51.502;6.918;2023-05-10T02:28:29;243.05;;;231.70;;
17214;SDS011;8723;51.502;6.918;2023-05-10T02:31:00;228.65;;;217.63;;
17214;SDS011;8723;51.502;6.918;2023-05-10T02:33:31;227.88;;;216.93;;
17214;SDS011;8723;51.502;6.918;2023-05-10T02:36:02;209.63;;;199.73;;
17214;SDS011;8723;51.502;6.918;2023-05-10T02:38:31;214.10;;;203.32;;
17214;SDS011;8723;51.502;6.918;2023-05-10T02:40:59;213.37;;;202.20;;
17214;SDS011;8723;51.502;6.918;2023-05-10T02:43:30;176.13;;;166.65;;
17214;SDS011;8723;51.502;6.918;2023-05-10T02:45:59;178.30;;;168.60;;
17214;SDS011;8723;51.502;6.918;2023-05-10T02:48:26;187.70;;;177.85;;
17214;SDS011;8723;51.502;6.918;2023-05-10T02:50:54;175.10;;;164.82;;
17214;SDS011;8723;51.502;6.918;2023-05-10T02:53:28;166.90;;;157.32;;
17214;SDS011;8723;51.502;6.918;2023-05-10T02:55:58;160.98;;;151.88;;
17214;SDS011;8723;51.502;6.918;2023-05-10T02:58:28;153.15;;;143.68;;
17214;SDS011;8723;51.502;6.918;2023-05-10T03:00:55;150.27;;;141.55;;
17214;SDS011;8723;51.502;6.918;2023-05-10T03:03:25;148.23;;;139.07;;
17214;SDS011;8723;51.502;6.918;2023-05-10T03:05:56;156.07;;;146.73;;
17214;SDS011;8723;51.502;6.918;2023-05-10T03:08:26;158.47;;;149.57;;
17214;SDS011;8723;51.502;6.918;2023-05-10T03:11:01;180.00;;;169.60;;
17214;SDS011;8723;51.502;6.918;2023-05-10T03:13:44;194.33;;;184.40;;
17214;SDS011;8723;51.502;6.918;2023-05-10T03:16:16;186.40;;;176.60;;
17214;SDS011;8723;51.502;6.918;2023-05-10T03:19:02;201.65;;;191.10;;
17214;SDS011;8723;51.502;6.918;2023-05-10T03:21:40;235.95;;;224.50;;
17214;SDS011;8723;51.502;6.918;2023-05-10T03:24:09;211.80;;;201.40;;
17214;SDS011;8723;51.502;6.918;2023-05-10T03:26:40;240.90;;;229.32;;
17214;SDS011;8723;51.502;6.918;2023-05-10T03:29:11;254.63;;;242.57;;
17214;SDS011;8723;51.502;6.918;2023-05-10T03:31:39;253.10;;;241.38;;
17214;SDS011;8723;51.502;6.918;2023-05-10T03:34:06;255.98;;;243.80;;
17214;SDS011;8723;51.502;6.918;2023-05-10T03:36:33;276.27;;;263.38;;
17214;SDS011;8723;51.502;6.918;2023-05-10T03:39:02;264.07;;;251.50;;
17214;SDS011;8723;51.502;6.918;2023-05-10T03:41:29;245.38;;;233.60;;
17214;SDS011;8723;51.502;6.918;2023-05-10T03:43:56;243.90;;;231.95;;
17214;SDS011;8723;51.502;6.918;2023-05-10T03:46:22;218.17;;;207.50;;
17214;SDS011;8723;51.502;6.918;2023-05-10T03:48:49;236.20;;;224.52;;
17214;SDS011;8723;51.502;6.918;2023-05-10T03:51:16;256.50;;;244.25;;
17214;SDS011;8723;51.502;6.918;2023-05-10T03:53:43;257.40;;;245.20;;
17214;SDS011;8723;51.502;6.918;2023-05-10T03:56:11;234.77;;;223.20;;
17214;SDS011;8723;51.502;6.918;2023-05-10T03:58:38;230.75;;;219.15;;
17214;SDS011;8723;51.502;6.918;2023-05-10T04:01:05;241.90;;;230.07;;
17214;SDS011;8723;51.502;6.918;2023-05-10T04:03:32;275.15;;;262.20;;
17214;SDS011;8723;51.502;6.918;2023-05-10T04:06:00;253.40;;;241.17;;
17214;SDS011;8723;51.502;6.918;2023-05-10T04:08:27;318.92;;;303.75;;
17214;SDS011;8723;51.502;6.918;2023-05-10T04:10:54;358.08;;;340.77;;
17214;SDS011;8723;51.502;6.918;2023-05-10T04:13:31;391.70;;;373.08;;
17214;SDS011;8723;51.502;6.918;2023-05-10T04:15:58;345.17;;;328.10;;
17214;SDS011;8723;51.502;6.918;2023-05-10T04:18:25;306.83;;;291.85;;
17214;SDS011;8723;51.502;6.918;2023-05-10T04:20:52;359.90;;;342.42;;
17214;SDS011;8723;51.502;6.918;2023-05-10T04:23:19;386.30;;;367.60;;
17214;SDS011;8723;51.502;6.918;2023-05-10T04:25:45;349.07;;;331.73;;
17214;SDS011;8723;51.502;6.918;2023-05-10T04:28:13;406.23;;;386.80;;
17214;SDS011;8723;51.502;6.918;2023-05-10T04:30:41;362.25;;;344.70;;
17214;SDS011;8723;51.502;6.918;2023-05-10T04:33:08;385.25;;;366.10;;
17214;SDS011;8723;51.502;6.918;2023-05-10T04:35:35;363.27;;;345.67;;
17214;SDS011;8723;51.502;6.918;2023-05-10T04:38:01;368.88;;;350.63;;
17214;SDS011;8723;51.502;6.918;2023-05-10T04:40:28;392.67;;;373.13;;
17214;SDS011;8723;51.502;6.918;2023-05-10T04:42:55;460.52;;;438.92;;
17214;SDS011;8723;51.502;6.918;2023-05-10T04:45:22;468.40;;;445.67;;
17214;SDS011;8723;51.502;6.918;2023-05-10T04:47:50;443.40;;;422.17;;
17214;SDS011;8723;51.502;6.918;2023-05-10T04:50:17;367.33;;;349.58;;
17214;SDS011;8723;51.502;6.918;2023-05-10T04:52:44;365.65;;;348.10;;
17214;SDS011;8723;51.502;6.918;2023-05-10T04:55:11;397.63;;;378.87;;
17214;SDS011;8723;51.502;6.918;2023-05-10T04:57:38;374.80;;;356.50;;
17214;SDS011;8723;51.502;6.918;2023-05-10T05:00:06;378.52;;;360.45;;
17214;SDS011;8723;51.502;6.918;2023-05-10T05:02:33;400.73;;;381.88;;
17214;SDS011;8723;51.502;6.918;2023-05-10T05:05:01;479.65;;;456.52;;
17214;SDS011;8723;51.502;6.918;2023-05-10T05:07:28;462.25;;;439.67;;
17214;SDS011;8723;51.502;6.918;2023-05-10T05:09:56;490.70;;;465.92;;
17214;SDS011;8723;51.502;6.918;2023-05-10T05:12:22;550.28;;;523.22;;
17214;SDS011;8723;51.502;6.918;2023-05-10T05:14:49;626.28;;;594.67;;
17214;SDS011;8723;51.502;6.918;2023-05-10T05:17:16;690.35;;;654.47;;
17214;SDS011;8723;51.502;6.918;2023-05-10T05:19:43;648.33;;;615.50;;
17214;SDS011;8723;51.502;6.918;2023-05-10T05:22:11;652.28;;;619.05;;
17214;SDS011;8723;51.502;6.918;2023-05-10T05:24:38;728.00;;;689.17;;
17214;SDS011;8723;51.502;6.918;2023-05-10T05:27:05;699.30;;;662.03;;
17214;SDS011;8723;51.502;6.918;2023-05-10T05:29:32;661.92;;;627.80;;
17214;SDS011;8723;51.502;6.918;2023-05-10T05:31:59;670.65;;;635.75;;
17214;SDS011;8723;51.502;6.918;2023-05-10T05:34:26;419.50;;;395.90;;
17214;SDS011;8723;51.502;6.918;2023-05-10T05:36:53;545.03;;;511.93;;
17214;SDS011;8723;51.502;6.918;2023-05-10T05:39:21;591.20;;;553.60;;
17214;SDS011;8723;51.502;6.918;2023-05-10T05:41:48;598.28;;;560.88;;
17214;SDS011;8723;51.502;6.918;2023-05-10T05:44:15;643.03;;;602.53;;
17214;SDS011;8723;51.502;6.918;2023-05-10T05:46:42;700.15;;;656.25;;
17214;SDS011;8723;51.502;6.918;2023-05-10T05:49:09;703.42;;;658.78;;
17214;SDS011;8723;51.502;6.918;2023-05-10T05:51:36;642.85;;;603.92;;
17214;SDS011;8723;51.502;6.918;2023-05-10T05:54:02;695.03;;;652.45;;
17214;SDS011;8723;51.502;6.918;2023-05-10T05:56:31;730.67;;;686.55;;
17214;SDS011;8723;51.502;6.918;2023-05-10T05:58:58;729.13;;;686.22;;
17214;SDS011;8723;51.502;6.918;2023-05-10T06:01:24;687.22;;;647.70;;
17214;SDS011;8723;51.502;6.918;2023-05-10T06:03:51;715.45;;;674.42;;
17214;SDS011;8723;51.502;6.918;2023-05-10T06:06:18;727.33;;;684.80;;
17214;SDS011;8723;51.502;6.918;2023-05-10T06:08:46;739.22;;;696.50;;
17214;SDS011;8723;51.502;6.918;2023-05-10T06:11:12;682.67;;;644.40;;
17214;SDS011;8723;51.502;6.918;2023-05-10T06:13:41;644.85;;;609.83;;
17214;SDS011;8723;51.502;6.918;2023-05-10T06:16:07;687.10;;;649.00;;
17214;SDS011;8723;51.502;6.918;2023-05-10T06:18:34;680.95;;;643.58;;
17214;SDS011;8723;51.502;6.918;2023-05-10T06:21:01;710.63;;;669.53;;
17214;SDS011;8723;51.502;6.918;2023-05-10T06:23:28;661.72;;;624.50;;
17214;SDS011;8723;51.502;6.918;2023-05-10T06:25:55;671.55;;;631.65;;
17214;SDS011;8723;51.502;6.918;2023-05-10T06:28:22;678.05;;;638.83;;
17214;SDS011;8723;51.502;6.918;2023-05-10T06:30:50;646.00;;;609.25;;
17214;SDS011;8723;51.502;6.918;2023-05-10T06:33:17;415.23;;;393.50;;
17214;SDS011;8723;51.502;6.918;2023-05-10T06:35:44;451.88;;;428.52;;
17214;SDS011;8723;51.502;6.918;2023-05-10T06:38:10;460.85;;;436.02;;
17214;SDS011;8723;51.502;6.918;2023-05-10T06:40:40;503.10;;;475.77;;
17214;SDS011;8723;51.502;6.918;2023-05-10T06:43:07;490.02;;;464.25;;
17214;SDS011;8723;51.502;6.918;2023-05-10T06:45:34;446.52;;;423.40;;
17214;SDS011;8723;51.502;6.918;2023-05-10T06:48:03;560.42;;;529.08;;
17214;SDS011;8723;51.502;6.918;2023-05-10T06:50:30;612.47;;;578.47;;
17214;SDS011;8723;51.502;6.918;2023-05-10T06:52:57;600.30;;;566.10;;
17214;SDS011;8723;51.502;6.918;2023-05-10T06:55:24;597.97;;;564.03;;
17214;SDS011;8723;51.502;6.918;2023-05-10T06:57:51;560.28;;;528.30;;
17214;SDS011;8723;51.502;6.918;2023-05-10T07:00:18;548.75;;;517.30;;
17214;SDS011;8723;51.502;6.918;2023-05-10T07:02:45;471.33;;;446.08;;
17214;SDS011;8723;51.502;6.918;2023-05-10T07:05:14;300.25;;;285.02;;
17214;SDS011;8723;51.502;6.918;2023-05-10T07:07:41;345.27;;;327.98;;
17214;SDS011;8723;51.502;6.918;2023-05-10T07:10:08;355.60;;;337.60;;
17214;SDS011;8723;51.502;6.918;2023-05-10T07:12:36;266.48;;;252.90;;
17214;SDS011;8723;51.502;6.918;2023-05-10T07:15:03;350.25;;;332.23;;
17214;SDS011;8723;51.502;6.918;2023-05-10T07:17:31;289.27;;;273.88;;
17214;SDS011;8723;51.502;6.918;2023-05-10T07:19:58;274.30;;;260.13;;
17214;SDS011;8723;51.502;6.918;2023-05-10T07:22:27;347.23;;;329.77;;
17214;SDS011;8723;51.502;6.918;2023-05-10T07:24:55;314.85;;;299.00;;
17214;SDS011;8723;51.502;6.918;2023-05-10T07:27:21;237.70;;;225.05;;
17214;SDS011;8723;51.502;6.918;2023-05-10T07:29:48;224.90;;;212.17;;
17214;SDS011;8723;51.502;6.918;2023-05-10T07:32:15;354.05;;;336.80;;
17214;SDS011;8723;51.502;6.918;2023-05-10T07:34:42;294.83;;;280.27;;
17214;SDS011;8723;51.502;6.918;2023-05-10T07:37:09;170.83;;;160.67;;
17214;SDS011;8723;51.502;6.918;2023-05-10T07:39:37;162.07;;;151.95;;
17214;SDS011;8723;51.502;6.918;2023-05-10T07:42:04;151.23;;;141.65;;
17214;SDS011;8723;51.502;6.918;2023-05-10T07:44:31;161.07;;;151.43;;
17214;SDS011;8723;51.502;6.918;2023-05-10T07:46:58;184.68;;;173.60;;
17214;SDS011;8723;51.502;6.918;2023-05-10T07:49:25;178.88;;;168.65;;
17214;SDS011;8723;51.502;6.918;2023-05-10T07:51:52;166.27;;;156.18;;
17214;SDS011;8723;51.502;6.918;2023-05-10T07:54:19;234.25;;;221.40;;
17214;SDS011;8723;51.502;6.918;2023-05-10T07:56:48;182.07;;;170.57;;
17214;SDS011;8723;51.502;6.918;2023-05-10T07:59:16;185.37;;;174.30;;
17214;SDS011;8723;51.502;6.918;2023-05-10T08:01:43;190.10;;;178.83;;
17214;SDS011;8723;51.502;6.918;2023-05-10T08:04:10;193.43;;;183.35;;
17214;SDS011;8723;51.502;6.918;2023-05-10T08:06:37;218.65;;;207.40;;
17214;SDS011;8723;51.502;6.918;2023-05-10T08:09:04;330.27;;;314.30;;
17214;SDS011;8723;51.502;6.918;2023-05-10T08:11:31;231.27;;;218.93;;
17214;SDS011;8723;51.502;6.918;2023-05-10T08:13:59;269.13;;;252.65;;
17214;SDS011;8723;51.502;6.918;2023-05-10T08:16:26;410.03;;;386.00;;
17214;SDS011;8723;51.502;6.918;2023-05-10T08:18:53;333.65;;;316.15;;
17214;SDS011;8723;51.502;6.918;2023-05-10T08:21:21;258.97;;;244.97;;
17214;SDS011;8723;51.502;6.918;2023-05-10T08:23:48;219.85;;;207.40;;
17214;SDS011;8723;51.502;6.918;2023-05-10T08:26:15;169.38;;;159.65;;
17214;SDS011;8723;51.502;6.918;2023-05-10T08:28:41;175.68;;;165.93;;
17214;SDS011;8723;51.502;6.918;2023-05-10T08:31:10;115.97;;;108.55;;
17214;SDS011;8723;51.502;6.918;2023-05-10T08:33:37;87.90;;;81.85;;
17214;SDS011;8723;51.502;6.918;2023-05-10T08:36:04;306.80;;;291.70;;
17214;SDS011;8723;51.502;6.918;2023-05-10T08:38:30;287.30;;;272.90;;
17214;SDS011;8723;51.502;6.918;2023-05-10T08:40:57;445.73;;;424.30;;
17214;SDS011;8723;51.502;6.918;2023-05-10T08:43:26;456.55;;;434.38;;
17214;SDS011;8723;51.502;6.918;2023-05-10T08:45:55;275.67;;;262.35;;
17214;SDS011;8723;51.502;6.918;2023-05-10T08:48:24;438.60;;;417.52;;
17214;SDS011;8723;51.502;6.918;2023-05-10T08:50:52;526.13;;;499.15;;
17214;SDS011;8723;51.502;6.918;2023-05-10T08:53:20;387.27;;;368.10;;
17214;SDS011;8723;51.502;6.918;2023-05-10T08:55:50;447.95;;;426.25;;
17214;SDS011;8723;51.502;6.918;2023-05-10T08:58:17;554.58;;;526.65;;
17214;SDS011;8723;51.502;6.918;2023-05-10T09:00:45;554.17;;;525.03;;
17214;SDS011;8723;51.502;6.918;2023-05-10T09:03:14;363.27;;;344.65;;
17214;SDS011;8723;51.502;6.918;2023-05-10T09:05:43;265.05;;;251.55;;
17214;SDS011;8723;51.502;6.918;2023-05-10T09:08:10;560.57;;;529.90;;
17214;SDS011;8723;51.502;6.918;2023-05-10T09:10:38;361.67;;;342.75;;
17214;SDS011;8723;51.502;6.918;2023-05-10T09:13:08;666.60;;;627.97;;
17214;SDS011;8723;51.502;6.918;2023-05-10T09:15:36;718.20;;;675.42;;
17214;SDS011;8723;51.502;6.918;2023-05-10T09:18:03;753.20;;;708.90;;
17214;SDS011;8723;51.502;6.918;2023-05-10T09:20:30;790.95;;;746.70;;
17214;SDS011;8723;51.502;6.918;2023-05-10T09:22:59;677.22;;;640.92;;
17214;SDS011;8723;51.502;6.918;2023-05-10T09:25:25;608.72;;;577.03;;
17214;SDS011;8723;51.502;6.918;2023-05-10T09:27:52;526.50;;;498.95;;
17214;SDS011;8723;51.502;6.918;2023-05-10T09:30:23;646.38;;;612.03;;
17214;SDS011;8723;51.502;6.918;2023-05-10T09:32:52;744.70;;;702.60;;
17214;SDS011;8723;51.502;6.918;2023-05-10T09:35:20;610.47;;;577.42;;
17214;SDS011;8723;51.502;6.918;2023-05-10T09:37:48;689.72;;;652.35;;
17214;SDS011;8723;51.502;6.918;2023-05-10T09:40:18;696.50;;;657.70;;
17214;SDS011;8723;51.502;6.918;2023-05-10T09:42:50;621.35;;;587.47;;
17214;SDS011;8723;51.502;6.918;2023-05-10T09:45:19;779.08;;;735.70;;
17214;SDS011;8723;51.502;6.918;2023-05-10T09:47:46;711.88;;;676.97;;
17214;SDS011;8723;51.502;6.918;2023-05-10T09:50:13;662.40;;;631.03;;
17214;SDS011;8723;51.502;6.918;2023-05-10T09:52:45;390.42;;;374.23;;
17214;SDS011;8723;51.502;6.918;2023-05-10T09:55:13;641.10;;;609.53;;
17214;SDS011;8723;51.502;6.918;2023-05-10T09:57:42;703.17;;;665.33;;
17214;SDS011;8723;51.502;6.918;2023-05-10T10:00:09;655.75;;;623.17;;
17214;SDS011;8723;51.502;6.918;2023-05-10T10:02:42;500.63;;;477.45;;
17214;SDS011;8723;51.502;6.918;2023-05-10T10:05:09;546.40;;;519.58;;
17214;SDS011;8723;51.502;6.918;2023-05-10T10:07:38;513.60;;;490.40;;
17214;SDS011;8723;51.502;6.918;2023-05-10T10:10:06;547.15;;;522.22;;
17214;SDS011;8723;51.502;6.918;2023-05-10T10:12:36;395.10;;;378.63;;
17214;SDS011;8723;51.502;6.918;2023-05-10T10:15:05;373.13;;;357.58;;
17214;SDS011;8723;51.502;6.918;2023-05-10T10:17:34;248.35;;;238.13;;
17214;SDS011;8723;51.502;6.918;2023-05-10T10:20:02;325.35;;;311.75;;
17214;SDS011;8723;51.502;6.918;2023-05-10T10:22:29;325.45;;;312.35;;
17214;SDS011;8723;51.502;6.918;2023-05-10T10:24:56;273.48;;;262.50;;
17214;SDS011;8723;51.502;6.918;2023-05-10T10:27:24;322.02;;;308.00;;
17214;SDS011;8723;51.502;6.918;2023-05-10T10:30:01;421.35;;;403.48;;
17214;SDS011;8723;51.502;6.918;2023-05-10T10:32:35;442.58;;;422.67;;
17214;SDS011;8723;51.502;6.918;2023-05-10T10:35:15;463.55;;;441.95;;
17214;SDS011;8723;51.502;6.918;2023-05-10T10:37:45;375.50;;;360.00;;
17214;SDS011;8723;51.502;6.918;2023-05-10T10:40:23;411.58;;;392.92;;
17214;SDS011;8723;51.502;6.918;2023-05-10T10:42:54;539.85;;;513.80;;
17214;SDS011;8723;51.502;6.918;2023-05-10T10:45:23;642.47;;;609.05;;
17214;SDS011;8723;51.502;6.918;2023-05-10T10:50:55;603.93;;;569.87;;
17214;SDS011;8723;51.502;6.918;2023-05-10T10:53:23;623.37;;;586.17;;
17214;SDS011;8723;51.502;6.918;2023-05-10T10:55:53;615.90;;;581.05;;
17214;SDS011;8723;51.502;6.918;2023-05-10T10:58:31;520.83;;;495.45;;
17214;SDS011;8723;51.502;6.918;2023-05-10T11:01:09;595.72;;;560.92;;
17214;SDS011;8723;51.502;6.918;2023-05-10T11:03:38;570.35;;;539.17;;
17214;SDS011;8723;51.502;6.918;2023-05-10T11:06:05;365.65;;;345.67;;
17214;SDS011;8723;51.502;6.918;2023-05-10T11:08:33;378.73;;;357.77;;
17214;SDS011;8723;51.502;6.918;2023-05-10T11:11:07;480.67;;;453.80;;
17214;SDS011;8723;51.502;6.918;2023-05-10T11:13:37;491.58;;;463.83;;
17214;SDS011;8723;51.502;6.918;2023-05-10T11:16:12;504.85;;;475.40;;
17214;SDS011;8723;51.502;6.918;2023-05-10T11:18:41;477.73;;;452.80;;
17214;SDS011;8723;51.502;6.918;2023-05-10T11:21:19;124.83;;;118.73;;
17214;SDS011;8723;51.502;6.918;2023-05-10T11:23:50;113.27;;;107.47;;
17214;SDS011;8723;51.502;6.918;2023-05-10T11:26:20;150.60;;;143.48;;
17214;SDS011;8723;51.502;6.918;2023-05-10T11:28:50;145.40;;;138.53;;
17214;SDS011;8723;51.502;6.918;2023-05-10T11:31:19;163.38;;;156.02;;
17214;SDS011;8723;51.502;6.918;2023-05-10T11:33:48;139.43;;;132.82;;
17214;SDS011;8723;51.502;6.918;2023-05-10T11:36:17;164.45;;;156.90;;
17214;SDS011;8723;51.502;6.918;2023-05-10T11:38:45;121.63;;;115.43;;
17214;SDS011;8723;51.502;6.918;2023-05-10T11:41:13;82.45;;;77.57;;
17214;SDS011;8723;51.502;6.918;2023-05-10T11:43:40;78.60;;;74.30;;
17214;SDS011;8723;51.502;6.918;2023-05-10T11:46:07;134.37;;;127.73;;
17214;SDS011;8723;51.502;6.918;2023-05-10T11:48:36;128.23;;;122.05;;
17214;SDS011;8723;51.502;6.918;2023-05-10T11:51:06;151.23;;;144.07;;
17214;SDS011;8723;51.502;6.918;2023-05-10T11:53:34;260.20;;;248.95;;
17214;SDS011;8723;51.502;6.918;2023-05-10T11:56:05;128.73;;;122.63;;
17214;SDS011;8723;51.502;6.918;2023-05-10T11:58:33;444.20;;;423.67;;
17214;SDS011;8723;51.502;6.918;2023-05-10T12:01:00;446.33;;;423.38;;
17214;SDS011;8723;51.502;6.918;2023-05-10T12:03:28;196.55;;;187.63;;
17214;SDS011;8723;51.502;6.918;2023-05-10T12:05:55;91.45;;;86.68;;
17214;SDS011;8723;51.502;6.918;2023-05-10T12:08:24;115.78;;;110.20;;
17214;SDS011;8723;51.502;6.918;2023-05-10T12:10:53;301.50;;;288.25;;
17214;SDS011;8723;51.502;6.918;2023-05-10T12:13:29;684.88;;;641.53;;
17214;SDS011;8723;51.502;6.918;2023-05-10T12:15:57;582.03;;;546.58;;
17214;SDS011;8723;51.502;6.918;2023-05-10T12:18:24;577.60;;;544.80;;
17214;SDS011;8723;51.502;6.918;2023-05-10T12:20:51;685.35;;;643.70;;
17214;SDS011;8723;51.502;6.918;2023-05-10T12:23:18;639.75;;;604.75;;
17214;SDS011;8723;51.502;6.918;2023-05-10T12:25:48;586.40;;;554.17;;
17214;SDS011;8723;51.502;6.918;2023-05-10T12:28:18;472.50;;;445.77;;
17214;SDS011;8723;51.502;6.918;2023-05-10T12:30:46;632.88;;;600.97;;
17214;SDS011;8723;51.502;6.918;2023-05-10T12:33:13;310.63;;;297.73;;
17214;SDS011;8723;51.502;6.918;2023-05-10T12:35:45;184.73;;;177.10;;
17214;SDS011;8723;51.502;6.918;2023-05-10T12:38:25;260.00;;;250.07;;
17214;SDS011;8723;51.502;6.918;2023-05-10T12:40:56;272.63;;;262.23;;
17214;SDS011;8723;51.502;6.918;2023-05-10T12:43:23;272.50;;;262.40;;
17214;SDS011;8723;51.502;6.918;2023-05-10T12:45:50;262.85;;;252.35;;
17214;SDS011;8723;51.502;6.918;2023-05-10T12:48:17;286.58;;;275.73;;
17214;SDS011;8723;51.502;6.918;2023-05-10T12:50:44;324.33;;;311.90;;
17214;SDS011;8723;51.502;6.918;2023-05-10T12:53:12;282.00;;;270.97;;
17214;SDS011;8723;51.502;6.918;2023-05-10T12:55:40;347.38;;;334.20;;
17214;SDS011;8723;51.502;6.918;2023-05-10T12:58:08;377.30;;;362.95;;
17214;SDS011;8723;51.502;6.918;2023-05-10T13:00:35;340.35;;;327.50;;
17214;SDS011;8723;51.502;6.918;2023-05-10T13:03:03;388.50;;;373.47;;
17214;SDS011;8723;51.502;6.918;2023-05-10T13:05:30;354.25;;;340.65;;
17214;SDS011;8723;51.502;6.918;2023-05-10T13:07:57;401.23;;;385.02;;
17214;SDS011;8723;51.502;6.918;2023-05-10T13:10:24;371.57;;;357.17;;
17214;SDS011;8723;51.502;6.918;2023-05-10T13:12:51;315.60;;;303.58;;
17214;SDS011;8723;51.502;6.918;2023-05-10T13:15:19;354.75;;;341.20;;
17214;SDS011;8723;51.502;6.918;2023-05-10T13:17:46;324.13;;;311.75;;
17214;SDS011;8723;51.502;6.918;2023-05-10T13:20:13;294.35;;;283.15;;
17214;SDS011;8723;51.502;6.918;2023-05-10T13:22:40;177.48;;;170.27;;
17214;SDS011;8723;51.502;6.918;2023-05-10T13:25:08;131.80;;;126.13;;
17214;SDS011;8723;51.502;6.918;2023-05-10T13:27:35;310.07;;;297.90;;
17214;SDS011;8723;51.502;6.918;2023-05-10T13:30:02;253.52;;;243.40;;
17214;SDS011;8723;51.502;6.918;2023-05-10T13:32:31;153.40;;;147.10;;
17214;SDS011;8723;51.502;6.918;2023-05-10T13:34:59;220.93;;;212.25;;
17214;SDS011;8723;51.502;6.918;2023-05-10T13:37:26;279.45;;;268.38;;
17214;SDS011;8723;51.502;6.918;2023-05-10T13:39:53;201.63;;;193.50;;
17214;SDS011;8723;51.502;6.918;2023-05-10T13:42:20;199.30;;;191.57;;
17214;SDS011;8723;51.502;6.918;2023-05-10T13:44:48;163.32;;;156.75;;
17214;SDS011;8723;51.502;6.918;2023-05-10T13:47:14;187.88;;;180.38;;
17214;SDS011;8723;51.502;6.918;2023-05-10T13:49:43;170.10;;;163.02;;
17214;SDS011;8723;51.502;6.918;2023-05-10T13:52:09;130.40;;;124.95;;
17214;SDS011;8723;51.502;6.918;2023-05-10T13:54:37;57.28;;;54.45;;
17214;SDS011;8723;51.502;6.918;2023-05-10T13:57:03;43.17;;;41.10;;
17214;SDS011;8723;51.502;6.918;2023-05-10T13:59:31;109.78;;;105.15;;
17214;SDS011;8723;51.502;6.918;2023-05-10T14:01:58;137.55;;;131.75;;
17214;SDS011;8723;51.502;6.918;2023-05-10T14:04:27;106.45;;;102.00;;
17214;SDS011;8723;51.502;6.918;2023-05-10T14:06:56;169.82;;;162.90;;
17214;SDS011;8723;51.502;6.918;2023-05-10T14:09:23;196.18;;;188.48;;
17214;SDS011;8723;51.502;6.918;2023-05-10T14:11:49;127.40;;;122.15;;
17214;SDS011;8723;51.502;6.918;2023-05-10T14:14:16;197.90;;;190.13;;
17214;SDS011;8723;51.502;6.918;2023-05-10T14:16:44;235.38;;;226.38;;
17214;SDS011;8723;51.502;6.918;2023-05-10T14:19:11;222.60;;;213.82;;
17214;SDS011;8723;51.502;6.918;2023-05-10T14:21:38;230.82;;;222.00;;
17214;SDS011;8723;51.502;6.918;2023-05-10T14:24:06;198.43;;;190.57;;
17214;SDS011;8723;51.502;6.918;2023-05-10T14:26:33;196.23;;;188.18;;
17214;SDS011;8723;51.502;6.918;2023-05-10T14:29:00;162.90;;;156.43;;